createdAt,value
2024-05-09T00:00:30.755Z,0.00
2024-05-09T00:01:25.435Z,0.00
2024-05-09T00:02:25.472Z,0.00
2024-05-09T00:03:25.410Z,0.00
2024-05-09T00:04:25.422Z,0.00
2024-05-09T00:05:25.531Z,0.00
2024-05-09T00:06:25.361Z,0.00
2024-05-09T00:07:25.352Z,0.00
2024-05-09T00:08:25.390Z,0.00
2024-05-09T00:09:25.358Z,0.00
2024-05-09T00:10:33.221Z,0.00
2024-05-09T00:11:25.404Z,0.00
2024-05-09T00:12:25.515Z,0.00
2024-05-09T00:13:25.351Z,0.00
2024-05-09T00:14:25.450Z,0.00
2024-05-09T00:15:25.326Z,0.00
2024-05-09T00:16:25.329Z,0.00
2024-05-09T00:17:25.533Z,0.00
2024-05-09T00:18:25.441Z,0.00
2024-05-09T00:19:25.447Z,0.00
2024-05-09T00:20:33.186Z,0.00
2024-05-09T00:21:25.311Z,0.00
2024-05-09T00:22:25.314Z,0.00
2024-05-09T00:23:25.383Z,0.00
2024-05-09T00:24:25.309Z,0.00
2024-05-09T00:25:25.300Z,0.00
2024-05-09T00:26:25.335Z,0.00
2024-05-09T00:27:25.301Z,0.00
2024-05-09T00:28:25.294Z,0.00
2024-05-09T00:29:25.430Z,0.00
2024-05-09T00:30:33.212Z,0.00
2024-05-09T00:31:25.286Z,0.00
2024-05-09T00:32:25.459Z,0.00
2024-05-09T00:33:25.539Z,0.00
2024-05-09T00:34:25.379Z,0.00
2024-05-09T00:35:25.488Z,0.00
2024-05-09T00:36:25.285Z,0.00
2024-05-09T00:37:25.266Z,0.00
2024-05-09T00:39:25.273Z,0.00
2024-05-09T00:40:35.077Z,0.00
2024-05-09T00:41:25.275Z,0.00
2024-05-09T00:42:25.258Z,0.00
2024-05-09T00:43:25.267Z,0.00
2024-05-09T00:44:25.394Z,0.00
2024-05-09T00:45:25.248Z,0.00
2024-05-09T00:46:25.245Z,0.00
2024-05-09T00:47:25.484Z,0.00
2024-05-09T00:48:25.390Z,0.00
2024-05-09T00:49:25.365Z,0.00
2024-05-09T00:50:33.819Z,0.00
2024-05-09T00:51:25.257Z,0.00
2024-05-09T00:52:25.226Z,0.00
2024-05-09T00:53:25.234Z,0.00
2024-05-09T00:54:25.220Z,0.00
2024-05-09T00:55:25.218Z,0.00
2024-05-09T00:56:25.330Z,0.00
2024-05-09T00:57:25.225Z,0.00
2024-05-09T00:58:25.213Z,0.00
2024-05-09T00:59:25.324Z,0.00
2024-05-09T01:01:25.284Z,0.00
2024-05-09T01:02:25.278Z,0.00
2024-05-09T01:03:25.380Z,0.00
2024-05-09T01:04:25.282Z,0.00
2024-05-09T01:05:25.222Z,0.00
2024-05-09T01:06:25.196Z,0.00
2024-05-09T01:07:25.199Z,0.00
2024-05-09T01:08:25.202Z,0.00
2024-05-09T01:09:25.199Z,0.00
2024-05-09T01:10:32.275Z,0.00
2024-05-09T01:11:25.277Z,0.00
2024-05-09T01:12:25.348Z,0.00
2024-05-09T01:13:25.167Z,0.00
2024-05-09T01:14:25.225Z,0.00
2024-05-09T01:15:25.159Z,0.00
2024-05-09T01:16:25.180Z,0.00
2024-05-09T01:17:25.346Z,0.00
2024-05-09T01:18:25.277Z,0.00
2024-05-09T01:19:25.356Z,0.00
2024-05-09T01:20:36.535Z,0.00
2024-05-09T01:21:25.220Z,0.00
2024-05-09T01:22:25.145Z,0.00
2024-05-09T01:23:25.244Z,0.00
2024-05-09T01:24:25.136Z,0.00
2024-05-09T01:25:25.138Z,0.00
2024-05-09T01:26:25.252Z,0.00
2024-05-09T01:27:25.128Z,0.00
2024-05-09T01:28:25.126Z,0.00
2024-05-09T01:29:25.209Z,0.00
2024-05-09T01:30:31.884Z,0.00
2024-05-09T01:31:25.118Z,0.00
2024-05-09T01:32:25.222Z,0.00
2024-05-09T01:33:25.260Z,0.00
2024-05-09T01:34:25.114Z,0.00
2024-05-09T01:35:25.237Z,0.00
2024-05-09T01:36:25.111Z,0.00
2024-05-09T01:37:25.114Z,0.00
2024-05-09T01:38:25.149Z,0.00
2024-05-09T01:39:25.103Z,0.00
2024-05-09T01:40:33.746Z,0.00
2024-05-09T01:41:25.210Z,0.00
2024-05-09T01:42:25.088Z,0.00
2024-05-09T01:43:25.093Z,0.00
2024-05-09T01:44:25.192Z,0.00
2024-05-09T01:45:25.073Z,0.00
2024-05-09T01:46:25.074Z,0.00
2024-05-09T01:47:25.272Z,0.00
2024-05-09T01:48:25.243Z,0.00
2024-05-09T01:49:25.254Z,0.00
2024-05-09T01:50:35.945Z,0.00
2024-05-09T01:51:25.054Z,0.00
2024-05-09T01:52:25.056Z,0.00
2024-05-09T01:53:25.095Z,0.00
2024-05-09T01:54:25.056Z,0.00
2024-05-09T01:55:25.052Z,0.00
2024-05-09T01:56:25.103Z,0.00
2024-05-09T01:57:25.054Z,0.00
2024-05-09T01:58:25.043Z,0.00
2024-05-09T01:59:25.118Z,0.00
2024-05-09T02:00:34.152Z,0.00
2024-05-09T02:01:25.103Z,0.00
2024-05-09T02:02:25.093Z,0.00
2024-05-09T02:03:25.174Z,0.00
2024-05-09T02:04:25.175Z,0.00
2024-05-09T02:05:25.082Z,0.00
2024-05-09T02:06:25.016Z,0.00
2024-05-09T02:07:25.011Z,0.00
2024-05-09T02:08:25.029Z,0.00
2024-05-09T02:09:25.001Z,0.00
2024-05-09T02:10:31.751Z,0.00
2024-05-09T02:11:25.140Z,0.00
2024-05-09T02:12:25.190Z,0.00
2024-05-09T02:13:24.987Z,0.00
2024-05-09T02:14:25.095Z,0.00
2024-05-09T02:15:24.999Z,0.00
2024-05-09T02:16:24.977Z,0.00
2024-05-09T02:17:25.096Z,0.00
2024-05-09T02:18:25.069Z,0.00
2024-05-09T02:19:25.034Z,0.00
2024-05-09T02:20:33.131Z,0.00
2024-05-09T02:21:24.964Z,0.00
2024-05-09T02:22:24.984Z,0.00
2024-05-09T02:23:25.014Z,0.00
2024-05-09T02:24:24.953Z,0.00
2024-05-09T02:25:24.956Z,0.00
2024-05-09T02:26:25.026Z,0.00
2024-05-09T02:27:24.945Z,0.00
2024-05-09T02:28:24.941Z,0.00
2024-05-09T02:29:25.026Z,0.00
2024-05-09T02:30:34.904Z,0.00
2024-05-09T02:31:24.987Z,0.00
2024-05-09T02:32:25.065Z,0.00
2024-05-09T02:33:25.189Z,0.00
2024-05-09T02:34:25.033Z,0.00
2024-05-09T02:35:25.031Z,0.00
2024-05-09T02:36:24.920Z,0.00
2024-05-09T02:37:24.935Z,0.00
2024-05-09T02:38:24.930Z,0.00
2024-05-09T02:39:24.906Z,0.00
2024-05-09T02:40:33.265Z,0.00
2024-05-09T02:41:24.954Z,0.00
2024-05-09T02:42:24.901Z,0.00
2024-05-09T02:43:24.887Z,0.00
2024-05-09T02:44:25.004Z,0.00
2024-05-09T02:45:24.898Z,0.00
2024-05-09T02:46:24.898Z,0.00
2024-05-09T02:47:24.948Z,0.00
2024-05-09T02:48:25.059Z,0.00
2024-05-09T02:49:24.962Z,0.00
2024-05-09T02:50:33.141Z,0.00
2024-05-09T02:51:24.873Z,0.00
2024-05-09T02:52:24.870Z,0.00
2024-05-09T02:53:24.885Z,0.00
2024-05-09T02:54:24.854Z,0.00
2024-05-09T02:55:24.854Z,0.00
2024-05-09T02:56:24.900Z,0.00
2024-05-09T02:57:24.859Z,0.00
2024-05-09T02:58:24.856Z,0.00
2024-05-09T02:59:24.934Z,0.00
2024-05-09T03:00:29.963Z,0.00
2024-05-09T03:01:24.885Z,0.00
2024-05-09T03:02:24.911Z,0.00
2024-05-09T03:03:25.060Z,0.00
2024-05-09T03:04:24.855Z,0.00
2024-05-09T03:05:24.837Z,0.00
2024-05-09T03:06:24.815Z,0.00
2024-05-09T03:07:24.817Z,0.00
2024-05-09T03:08:24.835Z,0.00
2024-05-09T03:09:24.818Z,0.00
2024-05-09T03:10:28.614Z,0.00
2024-05-09T03:11:24.995Z,0.00
2024-05-09T03:12:24.863Z,0.00
2024-05-09T03:13:24.799Z,0.00
2024-05-09T03:14:24.931Z,0.00
2024-05-09T03:15:24.790Z,0.00
2024-05-09T03:16:24.785Z,0.00
2024-05-09T03:17:25.055Z,0.00
2024-05-09T03:18:24.912Z,0.00
2024-05-09T03:19:24.878Z,0.00
2024-05-09T03:20:32.271Z,0.00
2024-05-09T03:21:24.771Z,0.00
2024-05-09T03:22:24.763Z,0.00
2024-05-09T03:23:24.833Z,0.00
2024-05-09T03:24:24.755Z,0.00
2024-05-09T03:25:24.756Z,0.00
2024-05-09T03:26:24.798Z,0.00
2024-05-09T03:27:24.795Z,0.00
2024-05-09T03:28:24.737Z,0.00
2024-05-09T03:29:24.828Z,0.00
2024-05-09T03:30:31.178Z,0.00
2024-05-09T03:31:24.725Z,0.00
2024-05-09T03:32:24.796Z,0.00
2024-05-09T03:33:24.932Z,0.00
2024-05-09T03:34:24.791Z,0.00
2024-05-09T03:35:24.851Z,0.00
2024-05-09T03:36:24.713Z,0.00
2024-05-09T03:37:24.710Z,0.00
2024-05-09T03:38:24.756Z,0.00
2024-05-09T03:39:24.714Z,0.00
2024-05-09T03:40:28.919Z,0.00
2024-05-09T03:41:24.765Z,0.00
2024-05-09T03:42:24.692Z,0.00
2024-05-09T03:43:25.091Z,0.00
2024-05-09T03:44:24.716Z,0.00
2024-05-09T03:45:24.682Z,0.00
2024-05-09T03:46:24.678Z,5.63
2024-05-09T03:47:24.787Z,5.63
2024-05-09T03:48:24.857Z,5.63
2024-05-09T03:49:24.935Z,5.63
2024-05-09T03:50:30.200Z,5.63
2024-05-09T03:51:24.664Z,5.63
2024-05-09T03:52:24.656Z,5.63
2024-05-09T03:53:24.667Z,5.63
2024-05-09T03:54:24.648Z,5.63
2024-05-09T03:55:24.647Z,11.25
2024-05-09T03:56:24.696Z,11.25
2024-05-09T03:57:24.640Z,11.25
2024-05-09T03:58:24.643Z,11.25
2024-05-09T03:59:24.718Z,11.25
2024-05-09T04:00:31.203Z,11.25
2024-05-09T04:01:24.677Z,11.25
2024-05-09T04:02:24.658Z,16.88
2024-05-09T04:03:24.967Z,16.88
2024-05-09T04:04:24.652Z,16.88
2024-05-09T04:05:24.653Z,16.88
2024-05-09T04:06:24.609Z,16.88
2024-05-09T04:07:24.605Z,16.88
2024-05-09T04:08:24.662Z,22.50
2024-05-09T04:09:24.601Z,22.50
2024-05-09T04:10:31.245Z,22.50
2024-05-09T04:11:24.653Z,22.50
2024-05-09T04:12:24.612Z,22.50
2024-05-09T04:13:24.588Z,22.50
2024-05-09T04:14:24.646Z,28.13
2024-05-09T04:15:24.572Z,28.13
2024-05-09T04:16:24.573Z,28.13
2024-05-09T04:17:24.651Z,28.13
2024-05-09T04:18:24.634Z,28.13
2024-05-09T04:19:24.725Z,28.13
2024-05-09T04:20:33.822Z,33.75
2024-05-09T04:21:24.553Z,33.75
2024-05-09T04:22:24.552Z,33.75
2024-05-09T04:23:24.662Z,39.38
2024-05-09T04:24:24.545Z,39.38
2024-05-09T04:25:24.556Z,39.38
2024-05-09T04:26:24.585Z,39.38
2024-05-09T04:27:24.529Z,45.00
2024-05-09T04:28:24.529Z,45.00
2024-05-09T04:29:24.616Z,45.00
2024-05-09T04:30:33.796Z,45.00
2024-05-09T04:31:24.552Z,50.63
2024-05-09T04:32:24.616Z,50.63
2024-05-09T04:33:24.833Z,50.63
2024-05-09T04:34:24.657Z,56.25
2024-05-09T04:35:24.746Z,56.25
2024-05-09T04:36:24.500Z,56.25
2024-05-09T04:37:24.501Z,56.25
2024-05-09T04:38:24.550Z,61.88
2024-05-09T04:39:24.491Z,61.88
2024-05-09T04:40:31.500Z,61.88
2024-05-09T04:41:24.523Z,67.50
2024-05-09T04:42:24.478Z,67.50
2024-05-09T04:43:24.499Z,67.50
2024-05-09T04:44:24.537Z,67.50
2024-05-09T04:45:24.486Z,73.13
2024-05-09T04:46:24.469Z,73.13
2024-05-09T04:47:24.646Z,73.13
2024-05-09T04:48:24.623Z,78.75
2024-05-09T04:49:24.604Z,78.75
2024-05-09T04:50:30.429Z,78.75
2024-05-09T04:51:24.464Z,78.75
2024-05-09T04:52:24.455Z,84.38
2024-05-09T04:53:24.488Z,84.38
2024-05-09T04:54:33.683Z,84.38
2024-05-09T04:55:24.436Z,84.38
2024-05-09T04:56:24.522Z,90.00
2024-05-09T04:57:24.429Z,90.00
2024-05-09T04:58:24.424Z,90.00
2024-05-09T04:59:24.550Z,90.00
2024-05-09T05:00:32.006Z,95.63
2024-05-09T05:01:24.476Z,95.63
2024-05-09T05:02:24.576Z,95.63
2024-05-09T05:03:24.777Z,95.63
2024-05-09T05:04:24.416Z,101.25
2024-05-09T05:05:24.470Z,101.25
2024-05-09T05:06:24.397Z,101.25
2024-05-09T05:07:24.400Z,101.25
2024-05-09T05:08:24.415Z,101.25
2024-05-09T05:09:24.400Z,101.25
2024-05-09T05:10:33.011Z,101.25
2024-05-09T05:11:24.440Z,101.25
2024-05-09T05:12:24.463Z,106.88
2024-05-09T05:13:24.925Z,106.88
2024-05-09T05:14:24.461Z,106.88
2024-05-09T05:15:24.370Z,106.88
2024-05-09T05:16:24.364Z,106.88
2024-05-09T05:17:24.416Z,112.50
2024-05-09T05:18:24.611Z,112.50
2024-05-09T05:19:24.504Z,112.50
2024-05-09T05:20:31.131Z,112.50
2024-05-09T05:21:24.429Z,118.13
2024-05-09T05:22:24.347Z,123.75
2024-05-09T05:23:24.458Z,118.13
2024-05-09T05:24:24.359Z,123.75
2024-05-09T05:25:24.340Z,123.75
2024-05-09T05:26:24.336Z,123.75
2024-05-09T05:27:24.332Z,123.75
2024-05-09T05:28:24.366Z,129.38
2024-05-09T05:29:24.372Z,129.38
2024-05-09T05:30:29.099Z,129.38
2024-05-09T05:31:24.356Z,129.38
2024-05-09T05:32:24.572Z,135.00
2024-05-09T05:33:24.476Z,135.00
2024-05-09T05:34:24.311Z,135.00
2024-05-09T05:35:24.499Z,140.63
2024-05-09T05:36:24.421Z,140.63
2024-05-09T05:37:24.306Z,140.63
2024-05-09T05:38:27.415Z,140.63
2024-05-09T05:39:24.301Z,146.25
2024-05-09T05:40:32.414Z,146.25
2024-05-09T05:41:24.387Z,146.25
2024-05-09T05:42:24.289Z,146.25
2024-05-09T05:43:24.288Z,151.88
2024-05-09T05:44:24.326Z,151.88
2024-05-09T05:45:24.286Z,151.88
2024-05-09T05:46:24.280Z,151.88
2024-05-09T05:47:24.454Z,157.50
2024-05-09T05:48:24.534Z,163.13
2024-05-09T05:49:24.357Z,157.50
2024-05-09T05:50:31.963Z,157.50
2024-05-09T05:51:24.275Z,157.50
2024-05-09T05:52:24.262Z,157.50
2024-05-09T05:53:24.336Z,163.13
2024-05-09T05:54:24.274Z,163.13
2024-05-09T05:55:24.260Z,163.13
2024-05-09T05:56:24.317Z,168.75
2024-05-09T05:57:24.259Z,168.75
2024-05-09T05:58:24.279Z,168.75
2024-05-09T05:59:24.298Z,168.75
2024-05-09T06:00:29.644Z,174.38
2024-05-09T06:01:24.308Z,174.38
2024-05-09T06:02:24.306Z,174.38
2024-05-09T06:03:24.281Z,180.00
2024-05-09T06:04:24.264Z,174.38
2024-05-09T06:05:26.033Z,174.38
2024-05-09T06:06:24.414Z,174.38
2024-05-09T06:07:24.231Z,168.75
2024-05-09T06:08:26.179Z,174.38
2024-05-09T06:09:24.230Z,180.00
2024-05-09T06:10:26.475Z,180.00
2024-05-09T06:11:24.301Z,180.00
2024-05-09T06:12:24.370Z,180.00
2024-05-09T06:13:24.240Z,185.63
2024-05-09T06:14:24.326Z,185.63
2024-05-09T06:15:24.216Z,185.63
2024-05-09T06:16:24.217Z,185.63
2024-05-09T06:17:24.540Z,185.63
2024-05-09T06:18:24.551Z,191.25
2024-05-09T06:19:24.509Z,191.25
2024-05-09T06:20:33.616Z,191.25
2024-05-09T06:21:24.250Z,191.25
2024-05-09T06:22:24.214Z,196.88
2024-05-09T06:23:24.225Z,196.88
2024-05-09T06:24:24.204Z,196.88
2024-05-09T06:25:24.202Z,196.88
2024-05-09T06:26:24.243Z,196.88
2024-05-09T06:27:24.217Z,196.88
2024-05-09T06:28:24.196Z,196.88
2024-05-09T06:29:24.253Z,196.88
2024-05-09T06:30:30.711Z,196.88
2024-05-09T06:31:24.197Z,196.88
2024-05-09T06:32:24.412Z,196.88
2024-05-09T06:33:24.507Z,202.50
2024-05-09T06:34:24.343Z,202.50
2024-05-09T06:35:24.244Z,202.50
2024-05-09T06:36:24.356Z,202.50
2024-05-09T06:37:24.197Z,202.50
2024-05-09T06:38:24.348Z,202.50
2024-05-09T06:39:24.189Z,208.13
2024-05-09T06:40:29.266Z,202.50
2024-05-09T06:41:24.244Z,202.50
2024-05-09T06:42:24.178Z,202.50
2024-05-09T06:43:24.192Z,202.50
2024-05-09T06:44:24.315Z,202.50
2024-05-09T06:45:24.184Z,202.50
2024-05-09T06:46:24.172Z,202.50
2024-05-09T06:47:24.506Z,208.13
2024-05-09T06:48:24.419Z,208.13
2024-05-09T06:49:24.413Z,208.13
2024-05-09T06:50:28.013Z,208.13
2024-05-09T06:51:24.198Z,208.13
2024-05-09T06:52:24.174Z,213.75
2024-05-09T06:53:24.352Z,213.75
2024-05-09T06:54:24.175Z,219.38
2024-05-09T06:55:24.170Z,219.38
2024-05-09T06:56:24.291Z,219.38
2024-05-09T06:57:24.168Z,225.00
2024-05-09T06:58:24.169Z,225.00
2024-05-09T06:59:24.208Z,225.00
2024-05-09T07:00:30.621Z,225.00
2024-05-09T07:01:24.243Z,230.63
2024-05-09T07:02:24.235Z,230.63
2024-05-09T07:03:24.324Z,230.63
2024-05-09T07:04:24.307Z,230.63
2024-05-09T07:05:24.290Z,230.63
2024-05-09T07:06:24.325Z,236.25
2024-05-09T07:07:24.159Z,230.63
2024-05-09T07:08:24.269Z,230.63
2024-05-09T07:09:24.178Z,236.25
2024-05-09T07:10:29.144Z,236.25
2024-05-09T07:11:24.284Z,236.25
2024-05-09T07:12:24.268Z,236.25
2024-05-09T07:13:24.174Z,236.25
2024-05-09T07:14:24.293Z,236.25
2024-05-09T07:15:24.166Z,236.25
2024-05-09T07:16:24.175Z,236.25
2024-05-09T07:17:24.312Z,236.25
2024-05-09T07:18:24.331Z,236.25
2024-05-09T07:19:24.246Z,236.25
2024-05-09T07:20:32.210Z,241.88
2024-05-09T07:21:24.186Z,241.88
2024-05-09T07:22:24.164Z,241.88
2024-05-09T07:23:24.196Z,241.88
2024-05-09T07:24:24.174Z,241.88
2024-05-09T07:25:24.188Z,241.88
2024-05-09T07:26:24.254Z,241.88
2024-05-09T07:27:24.161Z,247.50
2024-05-09T07:28:24.165Z,247.50
2024-05-09T07:29:24.237Z,247.50
2024-05-09T07:30:30.785Z,247.50
2024-05-09T07:31:24.165Z,247.50
2024-05-09T07:32:24.240Z,247.50
2024-05-09T07:33:24.852Z,247.50
2024-05-09T07:34:24.239Z,247.50
2024-05-09T07:35:24.211Z,253.13
2024-05-09T07:36:24.353Z,253.13
2024-05-09T07:37:24.165Z,253.13
2024-05-09T07:38:24.255Z,253.13
2024-05-09T07:39:24.168Z,253.13
2024-05-09T07:40:32.265Z,258.75
2024-05-09T07:41:24.291Z,258.75
2024-05-09T07:42:24.988Z,258.75
2024-05-09T07:43:24.169Z,264.38
2024-05-09T07:44:24.216Z,264.38
2024-05-09T07:45:40.578Z,270.00
2024-05-09T07:47:17.263Z,270.00
2024-05-09T07:48:49.078Z,270.00
2024-05-09T07:53:30.636Z,0.00
2024-05-09T07:53:39.286Z,0.00
2024-05-09T07:54:24.371Z,0.00
2024-05-09T07:55:24.326Z,0.00
2024-05-09T07:56:25.413Z,0.00
2024-05-09T07:57:24.226Z,0.00
2024-05-09T07:58:24.214Z,1856.25
2024-05-09T07:59:24.207Z,1929.38
2024-05-09T08:00:30.836Z,1861.88
2024-05-09T08:01:24.437Z,1771.88
2024-05-09T08:02:24.331Z,1845.00
2024-05-09T08:03:24.397Z,1918.13
2024-05-09T08:04:26.437Z,1918.13
2024-05-09T08:05:24.298Z,1726.88
2024-05-09T08:06:24.498Z,1659.38
2024-05-09T08:07:24.318Z,1704.38
2024-05-09T08:08:24.294Z,1811.25
2024-05-09T08:09:24.290Z,1771.88
2024-05-09T08:10:28.563Z,1811.25
2024-05-09T08:11:24.508Z,1828.13
2024-05-09T08:12:24.309Z,1811.25
2024-05-09T08:13:24.342Z,1783.13
2024-05-09T08:14:24.333Z,1755.00
2024-05-09T08:15:24.338Z,1777.50
2024-05-09T08:16:24.484Z,1704.38
2024-05-09T08:17:24.439Z,1698.75
2024-05-09T08:18:24.535Z,1755.00
2024-05-09T08:19:24.516Z,1783.13
2024-05-09T08:20:30.823Z,1771.88
2024-05-09T08:21:24.402Z,1665.00
2024-05-09T08:23:06.887Z,1597.50
2024-05-09T08:24:06.864Z,1659.38
2024-05-09T08:25:06.991Z,1653.75
2024-05-09T08:26:06.893Z,1614.38
2024-05-09T08:27:06.911Z,1569.38
2024-05-09T08:28:06.938Z,1451.25
2024-05-09T08:29:54.411Z,1670.63
2024-05-09T08:30:54.512Z,1620.00
2024-05-09T08:31:54.448Z,1597.50
2024-05-09T08:32:54.529Z,1586.25
2024-05-09T08:33:54.697Z,1575.00
2024-05-09T08:34:54.510Z,1586.25
2024-05-09T08:35:54.464Z,1586.25
2024-05-09T08:36:55.190Z,1631.25
2024-05-09T08:37:54.507Z,1642.50
2024-05-09T08:38:54.495Z,1569.38
2024-05-09T08:39:54.681Z,1501.88
2024-05-09T08:40:54.610Z,1254.38
2024-05-09T08:41:54.546Z,1254.38
2024-05-09T08:42:54.565Z,1366.88
2024-05-09T08:43:54.563Z,1473.75
2024-05-09T08:44:54.574Z,1518.75
2024-05-09T08:45:54.627Z,1535.63
2024-05-09T08:46:54.598Z,1507.50
2024-05-09T08:47:54.736Z,1485.00
2024-05-09T08:48:54.839Z,1507.50
2024-05-09T08:49:54.677Z,1473.75
2024-05-09T08:51:37.130Z,1451.25
2024-05-09T08:52:37.118Z,1417.50
2024-05-09T08:53:37.128Z,1395.00
2024-05-09T08:54:37.204Z,1372.50
2024-05-09T08:55:40.044Z,1316.25
2024-05-09T08:56:37.169Z,1366.88
2024-05-09T08:57:37.203Z,1338.75
2024-05-09T08:58:37.194Z,1333.13
2024-05-09T08:59:37.210Z,1260.00
2024-05-09T09:00:37.907Z,1192.50
2024-05-09T09:01:38.144Z,1203.75
2024-05-09T09:02:37.374Z,1147.50
2024-05-09T09:03:37.624Z,1170.00
2024-05-09T09:04:37.433Z,1198.13
2024-05-09T09:05:37.664Z,1226.25
2024-05-09T09:06:37.386Z,1226.25
2024-05-09T09:07:37.386Z,1203.75
2024-05-09T09:08:37.338Z,1198.13
2024-05-09T09:09:37.370Z,1198.13
2024-05-09T09:10:37.403Z,1164.38
2024-05-09T09:11:37.409Z,1080.00
2024-05-09T09:12:37.410Z,1130.63
2024-05-09T09:13:37.422Z,1125.00
2024-05-09T09:14:37.427Z,1136.25
2024-05-09T09:15:37.481Z,1136.25
2024-05-09T09:16:37.455Z,1096.88
2024-05-09T09:17:37.531Z,1057.50
2024-05-09T09:18:37.606Z,1057.50
2024-05-09T09:19:37.541Z,1040.63
2024-05-09T09:20:37.593Z,1012.50
2024-05-09T09:21:37.600Z,1006.88
2024-05-09T09:22:37.540Z,990.00
2024-05-09T09:23:37.553Z,967.50
2024-05-09T09:24:37.586Z,945.00
2024-05-09T09:25:37.596Z,922.50
2024-05-09T09:26:37.601Z,911.25
2024-05-09T09:27:37.727Z,911.25
2024-05-09T09:28:37.637Z,911.25
2024-05-09T09:29:37.641Z,894.38
2024-05-09T09:30:38.262Z,866.25
2024-05-09T09:31:37.689Z,855.00
2024-05-09T09:32:37.745Z,838.13
2024-05-09T09:33:37.941Z,826.88
2024-05-09T09:34:37.751Z,815.63
2024-05-09T09:35:37.733Z,798.75
2024-05-09T09:36:37.768Z,798.75
2024-05-09T09:37:37.755Z,798.75
2024-05-09T09:38:37.919Z,787.50
2024-05-09T09:39:37.825Z,776.25
2024-05-09T09:40:42.491Z,765.00
2024-05-09T09:41:37.820Z,753.75
2024-05-09T09:42:37.978Z,753.75
2024-05-09T09:43:37.851Z,736.88
2024-05-09T09:44:42.026Z,736.88
2024-05-09T09:45:37.926Z,725.63
2024-05-09T09:46:37.945Z,725.63
2024-05-09T09:47:38.002Z,714.38
2024-05-09T09:48:38.034Z,720.00
2024-05-09T09:49:38.004Z,708.75
2024-05-09T09:50:37.951Z,506.25
2024-05-09T09:52:37.988Z,489.38
2024-05-09T09:53:38.008Z,703.13
2024-05-09T09:54:38.079Z,691.88
2024-05-09T09:55:38.057Z,697.50
2024-05-09T09:56:38.053Z,703.13
2024-05-09T09:57:38.094Z,703.13
2024-05-09T09:58:38.162Z,658.13
2024-05-09T09:59:38.096Z,703.13
2024-05-09T10:00:38.305Z,691.88
2024-05-09T10:01:38.300Z,686.25
2024-05-09T10:02:38.178Z,680.63
2024-05-09T10:03:38.372Z,686.25
2024-05-09T10:04:38.286Z,675.00
2024-05-09T10:05:39.307Z,607.50
2024-05-09T10:06:38.205Z,500.63
2024-05-09T10:07:38.212Z,669.38
2024-05-09T10:08:38.242Z,686.25
2024-05-09T10:09:38.260Z,641.25
2024-05-09T10:10:38.369Z,663.75
2024-05-09T10:11:45.159Z,663.75
2024-05-09T10:12:38.403Z,652.50
2024-05-09T10:13:38.323Z,646.88
2024-05-09T10:14:38.314Z,635.63
2024-05-09T10:15:38.373Z,618.75
2024-05-09T10:16:38.350Z,613.13
2024-05-09T10:17:38.561Z,607.50
2024-05-09T10:18:38.634Z,601.88
2024-05-09T10:19:38.563Z,601.88
2024-05-09T10:20:38.398Z,601.88
2024-05-09T10:21:38.471Z,607.50
2024-05-09T10:22:38.438Z,607.50
2024-05-09T10:23:38.466Z,624.38
2024-05-09T10:24:38.499Z,770.63
2024-05-09T10:25:38.474Z,883.13
2024-05-09T10:26:38.485Z,945.00
2024-05-09T10:27:38.569Z,1029.38
2024-05-09T10:28:38.523Z,1119.38
2024-05-09T10:29:38.534Z,1164.38
2024-05-09T10:30:39.410Z,1125.00
2024-05-09T10:31:38.754Z,1186.88
2024-05-09T10:32:38.673Z,1271.25
2024-05-09T10:33:38.858Z,1378.13
2024-05-09T10:34:38.664Z,1378.13
2024-05-09T10:35:38.621Z,1254.38
2024-05-09T10:36:38.669Z,1423.13
2024-05-09T10:37:38.652Z,1282.50
2024-05-09T10:38:38.675Z,1102.50
2024-05-09T10:39:38.802Z,1186.88
2024-05-09T10:40:38.754Z,1164.38
2024-05-09T10:41:38.720Z,1141.88
2024-05-09T10:42:38.736Z,1175.63
2024-05-09T10:43:38.767Z,1220.63
2024-05-09T10:44:38.766Z,1440.00
2024-05-09T10:45:38.824Z,1265.63
2024-05-09T10:46:38.794Z,765.00
2024-05-09T10:47:38.911Z,697.50
2024-05-09T10:48:39.150Z,517.50
2024-05-09T10:49:38.895Z,286.88
2024-05-09T10:50:38.874Z,264.38
2024-05-09T10:51:38.919Z,258.75
2024-05-09T10:52:38.908Z,264.38
2024-05-09T10:53:38.917Z,264.38
2024-05-09T10:54:38.953Z,326.25
2024-05-09T10:55:38.953Z,489.38
2024-05-09T10:56:38.970Z,523.13
2024-05-09T10:57:39.090Z,517.50
2024-05-09T10:58:39.003Z,455.63
2024-05-09T10:59:39.023Z,478.13
2024-05-09T11:00:39.165Z,427.50
2024-05-09T11:01:39.186Z,388.13
2024-05-09T11:02:39.130Z,382.50
2024-05-09T11:03:39.578Z,410.63
2024-05-09T11:04:39.175Z,405.00
2024-05-09T11:05:39.310Z,416.25
2024-05-09T11:06:39.250Z,405.00
2024-05-09T11:07:39.130Z,393.75
2024-05-09T11:08:39.143Z,399.38
2024-05-09T11:09:39.205Z,405.00
2024-05-09T11:10:39.256Z,427.50
2024-05-09T11:11:39.230Z,438.75
2024-05-09T11:12:39.209Z,427.50
2024-05-09T11:13:39.206Z,427.50
2024-05-09T11:14:39.214Z,309.38
2024-05-09T11:15:39.358Z,331.88
2024-05-09T11:16:39.243Z,292.50
2024-05-09T11:17:39.343Z,388.13
2024-05-09T11:18:39.665Z,382.50
2024-05-09T11:19:39.333Z,371.25
2024-05-09T11:20:39.356Z,365.63
2024-05-09T11:21:39.309Z,309.38
2024-05-09T11:22:39.311Z,236.25
2024-05-09T11:23:39.332Z,230.63
2024-05-09T11:24:39.379Z,225.00
2024-05-09T11:25:39.350Z,326.25
2024-05-09T11:26:39.350Z,348.75
2024-05-09T11:28:31.837Z,354.38
2024-05-09T11:29:31.836Z,360.00
2024-05-09T11:30:32.603Z,360.00
2024-05-09T11:31:32.104Z,371.25
2024-05-09T11:32:31.916Z,376.88
2024-05-09T11:33:31.993Z,371.25
2024-05-09T11:34:32.034Z,365.63
2024-05-09T11:35:31.936Z,365.63
2024-05-09T11:36:32.182Z,365.63
2024-05-09T11:37:34.096Z,354.38
2024-05-09T11:38:31.945Z,348.75
2024-05-09T11:39:32.038Z,337.50
2024-05-09T11:41:31.970Z,315.00
2024-05-09T11:42:32.015Z,320.63
2024-05-09T11:43:32.134Z,326.25
2024-05-09T11:44:31.982Z,337.50
2024-05-09T11:45:32.102Z,337.50
2024-05-09T11:46:33.215Z,343.13
2024-05-09T11:47:32.105Z,343.13
2024-05-09T11:48:32.321Z,337.50
2024-05-09T11:49:32.195Z,337.50
2024-05-09T11:50:35.471Z,331.88
2024-05-09T11:51:32.087Z,331.88
2024-05-09T11:52:32.056Z,326.25
2024-05-09T11:53:32.058Z,326.25
2024-05-09T11:54:32.104Z,326.25
2024-05-09T11:55:32.132Z,326.25
2024-05-09T11:56:32.082Z,331.88
2024-05-09T11:57:32.171Z,326.25
2024-05-09T11:58:32.119Z,331.88
2024-05-09T11:59:32.118Z,331.88
2024-05-09T12:00:36.714Z,320.63
2024-05-09T12:01:32.391Z,315.00
2024-05-09T12:02:32.202Z,309.38
2024-05-09T12:03:32.463Z,309.38
2024-05-09T12:04:32.420Z,315.00
2024-05-09T12:05:32.540Z,315.00
2024-05-09T12:06:32.337Z,315.00
2024-05-09T12:07:32.258Z,315.00
2024-05-09T12:08:32.180Z,320.63
2024-05-09T12:09:32.332Z,315.00
2024-05-09T12:10:34.768Z,320.63
2024-05-09T12:11:32.400Z,320.63
2024-05-09T12:12:33.511Z,326.25
2024-05-09T12:13:32.328Z,320.63
2024-05-09T12:14:32.236Z,315.00
2024-05-09T12:15:32.353Z,315.00
2024-05-09T12:16:32.487Z,315.00
2024-05-09T12:17:32.367Z,303.75
2024-05-09T12:18:32.367Z,208.13
2024-05-09T12:19:32.365Z,202.50
2024-05-09T12:20:37.286Z,191.25
2024-05-09T12:21:32.335Z,180.00
2024-05-09T12:22:32.661Z,174.38
2024-05-09T12:23:32.311Z,168.75
2024-05-09T12:24:32.360Z,163.13
2024-05-09T12:25:32.318Z,163.13
2024-05-09T12:26:32.325Z,163.13
2024-05-09T12:27:32.409Z,174.38
2024-05-09T12:28:32.353Z,180.00
2024-05-09T12:29:33.307Z,180.00
2024-05-09T12:32:42.403Z,286.88
2024-05-09T12:33:42.411Z,208.13
2024-05-09T12:34:42.381Z,213.75
2024-05-09T12:35:44.517Z,213.75
2024-05-09T12:36:42.490Z,225.00
2024-05-09T12:37:42.370Z,303.75
2024-05-09T12:38:42.376Z,315.00
2024-05-09T12:39:42.406Z,315.00
2024-05-09T12:40:42.514Z,320.63
2024-05-09T12:41:45.215Z,315.00
2024-05-09T12:42:42.455Z,315.00
2024-05-09T12:43:42.400Z,315.00
2024-05-09T12:44:42.407Z,315.00
2024-05-09T12:45:42.448Z,315.00
2024-05-09T12:46:42.417Z,309.38
2024-05-09T12:47:42.455Z,202.50
2024-05-09T12:48:42.568Z,196.88
2024-05-09T12:49:42.497Z,191.25
2024-05-09T12:50:42.513Z,208.13
2024-05-09T12:51:42.501Z,258.75
2024-05-09T12:52:42.463Z,213.75
2024-05-09T12:53:42.469Z,247.50
2024-05-09T12:54:42.488Z,191.25
2024-05-09T12:55:48.842Z,225.00